Time;durP1;ratioP1;P1;durP2;ratioP2;P2;SDS_P1;SDS_P2;PMS_P1;PMS_P2;Temp;Humidity;BMP_temperature;BMP_pressure;BME280_temperature;BME280_humidity;BME280_pressure;Samples;Min_cycle;Max_cycle;Signal;HPM_P1;HPM_P2
2022/03/29 00:01:39;;;;;;;13.67;11.67;;;6.80;97.60;;;7.76;63.39;97754.91;5213184;28;20292;-55
2022/03/29 00:04:13;;;;;;;13.00;11.77;;;6.80;97.80;;;7.67;63.53;97745.00;5208688;28;20646;-52
2022/03/29 00:06:46;;;;;;;13.13;11.60;;;6.80;97.80;;;7.62;63.36;97746.34;5212098;28;20291;-55
2022/03/29 00:09:20;;;;;;;12.67;11.27;;;6.60;98.30;;;7.57;64.57;97737.53;5216865;28;20236;-56
2022/03/29 00:11:53;;;;;;;12.97;11.70;;;6.60;98.20;;;7.46;64.70;97738.47;5213185;28;20208;-57
2022/03/29 00:14:26;;;;;;;11.83;10.77;;;6.60;98.50;;;7.54;64.61;97729.69;5209687;28;20224;-56
2022/03/29 00:16:59;;;;;;;13.17;11.93;;;6.60;98.30;;;7.49;65.06;97723.41;5213128;28;20204;-54
2022/03/29 00:19:34;;;;;;;12.43;11.13;;;6.60;98.60;;;7.48;65.31;97715.72;5210898;28;20669;-56
2022/03/29 00:22:07;;;;;;;12.37;11.17;;;6.60;99.00;;;7.48;65.53;97721.66;5205860;28;20655;-56
2022/03/29 00:24:40;;;;;;;12.80;11.50;;;6.60;98.80;;;7.36;65.08;97719.19;5208886;28;20190;-58
2022/03/29 00:27:13;;;;;;;12.20;11.00;;;6.50;98.70;;;7.40;65.60;97712.66;5211593;28;20202;-59
2022/03/29 00:29:46;;;;;;;12.27;11.13;;;6.60;99.00;;;7.39;65.60;97713.44;5215377;28;20244;-57
2022/03/29 00:32:19;;;;;;;11.50;10.40;;;6.50;98.70;;;7.36;65.10;97708.16;5216173;28;20198;-56
2022/03/29 00:34:54;;;;;;;12.30;10.90;;;6.50;98.60;;;7.33;65.25;97697.78;5215140;28;20201;-57
2022/03/29 00:37:27;;;;;;;12.80;11.17;;;6.40;98.90;;;7.31;65.60;97701.88;5214381;28;20201;-58
2022/03/29 00:40:00;;;;;;;12.97;11.23;;;6.50;98.90;;;7.27;65.42;97697.34;5209974;28;20756;-57
2022/03/29 00:42:34;;;;;;;12.83;11.47;;;6.40;98.90;;;7.28;64.92;97707.63;5213092;28;20289;-58
2022/03/29 00:45:09;;;;;;;12.37;11.07;;;6.30;98.80;;;7.22;64.98;97700.47;5211830;28;20244;-56
2022/03/29 00:47:42;;;;;;;12.53;11.23;;;6.30;98.90;;;7.16;65.61;97689.03;5212454;28;20202;-57
2022/03/29 00:50:18;;;;;;;12.60;11.43;;;6.20;99.10;;;7.10;66.82;97674.25;5206838;28;20329;-54
2022/03/29 00:52:51;;;;;;;13.03;11.63;;;6.20;99.90;;;7.09;66.51;97682.63;5216959;28;20200;-56
2022/03/29 00:55:24;;;;;;;14.57;11.77;;;6.20;99.50;;;7.10;66.59;97681.00;5210854;28;20226;-53
2022/03/29 00:57:58;;;;;;;12.20;10.97;;;6.20;99.60;;;7.09;66.60;97679.19;5209861;28;20233;-52
2022/03/29 01:00:32;;;;;;;11.90;10.70;;;6.30;99.50;;;7.09;66.19;97680.06;5214513;28;20341;-55
2022/03/29 01:03:05;;;;;;;12.37;11.17;;;6.20;99.50;;;7.13;nan;97674.44;5219167;28;20687;-56
2022/03/29 01:05:40;;;;;;;13.13;11.83;;;6.20;99.60;;;7.09;67.30;97669.03;5211104;28;20659;-58
2022/03/29 01:08:13;;;;;;;13.00;11.53;;;6.30;99.90;;;7.11;66.63;97667.50;5215133;28;20300;-58
2022/03/29 01:10:47;;;;;;;12.70;11.50;;;6.20;99.60;;;7.09;66.78;97669.03;5211257;28;20225;-58
2022/03/29 01:13:21;;;;;;;12.53;11.40;;;6.20;99.50;;;7.12;66.75;97662.50;5216389;28;20590;-59
2022/03/29 01:15:54;;;;;;;13.50;12.20;;;6.20;99.70;;;7.09;66.48;97659.75;5217155;28;20752;-58
2022/03/29 01:18:28;;;;;;;14.23;12.70;;;6.20;99.90;;;7.07;67.12;97653.72;5217392;28;20208;-58
2022/03/29 01:21:05;;;;;;;13.50;11.87;;;6.20;99.90;;;7.07;68.09;97648.63;5210331;28;20275;-58
2022/03/29 01:23:39;;;;;;;13.03;11.83;;;6.30;99.90;;;7.07;67.51;97641.00;5213896;28;20681;-58
2022/03/29 01:26:15;;;;;;;13.03;11.50;;;6.20;99.90;;;6.96;67.08;97640.28;5213175;28;20207;-59
2022/03/29 01:28:48;;;;;;;12.07;10.87;;;6.00;99.90;;;6.84;67.02;97636.00;5215775;28;20292;-57
2022/03/29 01:31:22;;;;;;;12.67;11.43;;;5.90;99.90;;;6.71;68.38;97632.66;5213570;28;20294;-55
2022/03/29 01:33:57;;;;;;;13.30;11.90;;;5.70;99.90;;;6.72;67.72;97634.44;5214246;28;20232;-58
2022/03/29 01:36:30;;;;;;;12.80;11.53;;;5.70;99.90;;;6.69;68.65;97626.56;5214663;28;20804;-58
2022/03/29 01:39:04;;;;;;;13.03;11.63;;;5.80;99.90;;;6.66;68.60;97618.75;5214650;28;20232;-57
2022/03/29 01:41:38;;;;;;;12.63;11.53;;;5.80;99.90;;;6.60;68.78;97615.78;5213293;28;20291;-55
2022/03/29 01:44:12;;;;;;;12.77;11.07;;;5.80;99.90;;;6.62;68.52;97609.16;5216842;28;20255;-55
2022/03/29 01:46:45;;;;;;;11.57;10.33;;;5.70;99.90;;;6.61;68.12;97611.59;5215924;28;20297;-55
2022/03/29 01:49:18;;;;;;;13.20;11.80;;;5.70;99.90;;;6.60;68.54;97608.19;5218107;28;20273;-55
2022/03/29 01:51:52;;;;;;;12.20;11.03;;;5.70;99.90;;;6.59;69.32;97611.50;5212330;28;20287;-56
2022/03/29 01:54:27;;;;;;;12.10;10.87;;;5.70;99.90;;;6.58;68.81;97606.31;5217840;28;20231;-55
2022/03/29 01:57:00;;;;;;;12.50;11.23;;;5.70;99.90;;;6.53;68.98;97596.72;5213368;28;20189;-54
2022/03/29 02:02:20;;;;;;;13.33;12.20;;;5.70;99.90;;;6.58;69.19;97591.97;5216767;28;20328;-56
2022/03/29 02:04:53;;;;;;;13.83;12.47;;;5.70;99.90;;;6.49;68.92;97592.19;5214669;28;20650;-55
2022/03/29 02:07:26;;;;;;;13.13;11.97;;;5.60;99.90;;;6.39;69.98;97596.56;5213581;28;20203;-55
2022/03/29 02:10:01;;;;;;;12.57;11.30;;;5.50;99.90;;;6.35;70.22;97595.47;5211935;28;20228;-55
2022/03/29 02:12:35;;;;;;;13.77;12.27;;;5.60;99.90;;;6.40;69.88;97601.75;5216106;28;20299;-57
2022/03/29 02:15:09;;;;;;;13.90;12.50;;;5.50;99.90;;;6.31;69.91;97591.84;5212194;28;20592;-55
2022/03/29 02:17:44;;;;;;;13.90;12.57;;;5.40;99.90;;;6.23;70.75;97592.97;5213031;28;20192;-58
2022/03/29 02:20:18;;;;;;;13.67;11.90;;;5.50;99.90;;;6.20;70.75;97594.41;5211628;28;20315;-55
2022/03/29 02:22:51;;;;;;;12.70;11.47;;;5.50;99.90;;;6.26;70.96;97587.22;5212271;28;20292;-55
2022/03/29 02:25:25;;;;;;;13.93;12.63;;;5.60;99.90;;;6.32;70.71;97587.63;5215593;28;20232;-56
2022/03/29 02:27:58;;;;;;;15.10;13.33;;;5.60;99.90;;;6.28;70.83;97580.59;5209960;28;20201;-58
2022/03/29 02:30:32;;;;;;;13.33;11.93;;;5.50;99.90;;;6.41;70.72;97569.63;5210544;28;20653;-58
2022/03/29 02:33:07;;;;;;;14.10;12.70;;;5.60;99.90;;;6.35;70.83;97565.00;5215607;28;20250;-54
2022/03/29 02:35:40;;;;;;;14.20;12.80;;;5.60;99.90;;;6.32;70.71;97568.25;5208704;28;20313;-54
2022/03/29 02:38:13;;;;;;;13.00;11.70;;;5.50;99.90;;;6.30;70.78;97564.69;5212309;28;20197;-54
2022/03/29 02:40:48;;;;;;;12.97;11.03;;;5.50;99.90;;;6.29;71.12;97556.97;5207719;28;20594;-55
2022/03/29 02:43:21;;;;;;;13.50;12.27;;;5.50;99.90;;;6.25;71.06;97566.03;5209813;28;22612;-56
2022/03/29 02:45:54;;;;;;;14.03;12.70;;;5.50;99.90;;;6.33;70.62;97553.88;5207424;28;20565;-57
2022/03/29 02:48:27;;;;;;;14.03;12.63;;;5.50;99.90;;;6.34;71.08;97557.28;5218258;28;20670;-55
2022/03/29 02:51:01;;;;;;;12.87;11.67;;;5.50;99.90;;;6.31;71.58;97550.34;5214384;28;20320;-54
2022/03/29 02:53:34;;;;;;;14.07;12.57;;;5.60;99.90;;;6.35;71.16;97546.34;5214561;28;20189;-55
2022/03/29 02:56:08;;;;;;;15.80;13.43;;;5.60;99.90;;;6.35;71.39;97547.22;5212319;28;20230;-54
2022/03/29 02:58:42;;;;;;;13.80;12.40;;;5.60;99.90;;;6.34;70.72;97542.06;5211202;28;20193;-54
2022/03/29 03:01:15;;;;;;;14.37;12.97;;;5.40;99.90;;;6.30;70.50;97533.38;5214590;28;20201;-56
2022/03/29 03:03:48;;;;;;;13.93;12.53;;;5.40;99.90;;;6.20;71.26;97543.66;5215486;28;20292;-56
2022/03/29 03:06:21;;;;;;;12.60;11.20;;;5.30;99.90;;;6.22;70.57;97543.00;5209117;28;20213;-58
2022/03/29 03:08:54;;;;;;;13.80;12.47;;;5.30;99.90;;;6.16;70.46;97534.97;5210825;28;20626;-56
2022/03/29 03:11:29;;;;;;;14.03;12.50;;;5.20;99.90;;;6.11;71.06;97536.31;5214498;28;20283;-54
2022/03/29 03:14:02;;;;;;;13.40;12.10;;;5.10;99.90;;;6.09;71.18;97532.75;5214372;28;20370;-57
2022/03/29 03:16:35;;;;;;;13.53;12.07;;;5.10;99.90;;;6.04;72.53;97527.41;5219143;28;20306;-55
2022/03/29 03:19:28;;;;;;;14.43;12.93;;;5.30;99.90;;;6.12;72.64;97537.19;5213799;28;20684;-58
2022/03/29 03:22:02;;;;;;;13.93;12.30;;;5.40;99.90;;;6.09;72.14;97538.75;5211917;28;20712;-57
2022/03/29 03:24:35;;;;;;;15.00;13.00;;;5.30;99.90;;;6.11;71.78;97530.34;5216942;28;20287;-57
2022/03/29 03:27:09;;;;;;;14.67;13.03;;;5.30;99.90;;;6.11;71.74;97532.88;5209158;28;20283;-58
2022/03/29 03:29:42;;;;;;;15.30;13.70;;;5.30;99.90;;;6.12;71.98;97532.97;5209459;28;20294;-57
2022/03/29 03:32:16;;;;;;;14.43;12.93;;;5.30;99.90;;;6.12;71.92;97527.91;5215555;28;20663;-57
2022/03/29 03:34:49;;;;;;;15.13;13.53;;;5.30;99.90;;;6.09;71.19;97527.69;5209705;28;20201;-58
2022/03/29 03:37:22;;;;;;;15.47;13.87;;;5.30;99.90;;;6.09;72.96;97517.53;5208736;28;20212;-58
2022/03/29 03:39:55;;;;;;;15.93;14.37;;;5.30;99.90;;;6.12;71.99;97516.88;5206966;28;20591;-59
2022/03/29 03:42:30;;;;;;;15.17;13.67;;;5.40;99.90;;;6.14;72.41;97508.59;5216068;28;20288;-57
2022/03/29 03:45:04;;;;;;;15.20;13.63;;;5.40;99.90;;;6.19;72.13;97511.47;5209871;28;20291;-55
2022/03/29 03:47:38;;;;;;;14.73;12.97;;;5.40;99.90;;;6.18;71.83;97502.97;5211028;28;20221;-59
2022/03/29 03:50:11;;;;;;;15.43;13.47;;;5.40;99.90;;;6.17;72.52;97490.16;5213474;28;20321;-59
2022/03/29 03:52:44;;;;;;;13.93;12.53;;;5.40;99.90;;;6.19;72.27;97493.69;5212981;28;20213;-52
2022/03/29 03:55:18;;;;;;;14.80;13.20;;;5.40;99.90;;;6.18;71.53;97497.00;5215373;28;20663;-59
2022/03/29 03:57:53;;;;;;;13.23;11.50;;;5.30;99.90;;;6.12;72.11;97482.22;5217304;28;20274;-59
2022/03/29 04:00:26;;;;;;;14.60;12.63;;;5.30;99.90;;;6.14;71.87;97485.75;5216162;28;20299;-58
2022/03/29 04:03:01;;;;;;;14.43;12.27;;;5.30;99.90;;;6.09;72.11;97484.56;5222657;28;20304;-53
2022/03/29 04:05:34;;;;;;;15.30;13.70;;;5.30;99.90;;;6.10;72.75;97483.81;5213299;28;20197;-51
2022/03/29 04:08:08;;;;;;;12.83;11.63;;;5.40;99.90;;;6.08;72.45;97491.31;5217491;28;20594;-53
2022/03/29 04:10:41;;;;;;;13.33;12.00;;;5.40;99.90;;;6.16;72.26;97485.88;5212430;28;20231;-52
2022/03/29 04:13:16;;;;;;;14.00;12.67;;;5.30;99.90;;;6.13;72.16;97489.09;5215032;28;20212;-50
2022/03/29 04:15:49;;;;;;;14.50;13.00;;;5.30;99.90;;;6.19;71.59;97483.56;5215322;28;20223;-54
2022/03/29 04:18:22;;;;;;;15.33;13.83;;;5.30;99.90;;;6.20;71.92;97486.16;5215093;28;20210;-53
2022/03/29 04:20:55;;;;;;;14.80;13.30;;;5.30;99.90;;;6.20;71.67;97488.72;5210232;28;20316;-53
2022/03/29 04:23:29;;;;;;;15.50;13.93;;;5.30;99.90;;;6.22;71.74;97483.75;5209961;28;20288;-53
2022/03/29 04:26:02;;;;;;;14.83;13.33;;;5.30;99.90;;;6.13;71.90;97489.09;5211410;28;20206;-55
2022/03/29 04:28:37;;;;;;;15.00;13.50;;;5.20;99.90;;;6.10;71.74;97491.41;5217700;28;20299;-53
2022/03/29 04:31:10;;;;;;;14.73;13.23;;;5.10;99.90;;;6.06;72.08;97497.03;5217999;28;20297;-51
2022/03/29 04:33:45;;;;;;;15.10;13.57;;;5.10;99.90;;;5.99;73.44;97489.81;5215907;28;20732;-56
2022/03/29 04:36:18;;;;;;;14.60;13.10;;;5.10;99.90;;;5.93;72.83;97494.44;5219956;28;20206;-54
2022/03/29 04:38:51;;;;;;;14.13;12.87;;;5.10;99.90;;;5.89;72.92;97493.31;5220017;28;20293;-50
2022/03/29 04:41:24;;;;;;;17.23;14.90;;;5.10;99.90;;;5.94;72.78;97483.53;5215225;28;20284;-53
2022/03/29 04:44:04;;;;;;;16.13;14.53;;;5.00;99.90;;;5.88;73.74;97477.22;5218234;28;20198;-52
2022/03/29 04:46:38;;;;;;;14.67;13.27;;;5.00;99.90;;;5.76;74.04;97488.19;5213407;28;20277;-50
2022/03/29 04:49:11;;;;;;;16.97;14.07;;;5.00;99.90;;;5.68;74.19;97477.50;5222040;28;20225;-51
2022/03/29 04:51:44;;;;;;;15.77;12.87;;;4.90;99.90;;;5.66;73.51;97476.50;5212964;28;20207;-51
2022/03/29 04:54:17;;;;;;;14.90;13.33;;;4.70;99.90;;;5.59;73.46;97476.88;5220767;28;20208;-53
2022/03/29 04:56:51;;;;;;;14.47;12.97;;;4.60;99.90;;;5.54;73.50;97475.66;5220433;28;20226;-54
2022/03/29 04:59:25;;;;;;;17.23;15.30;;;4.60;99.90;;;5.32;73.83;97471.63;5219625;28;20228;-51
2022/03/29 05:01:58;;;;;;;15.27;13.77;;;4.50;99.90;;;5.40;73.83;97470.50;5213152;28;20290;-52
2022/03/29 05:04:31;;;;;;;16.13;14.43;;;4.60;99.90;;;5.36;73.92;97468.53;5220924;28;20204;-52
2022/03/29 05:07:05;;;;;;;15.10;13.43;;;4.50;99.90;;;5.37;73.51;97467.75;5222576;28;20197;-50
2022/03/29 05:09:38;;;;;;;15.57;13.97;;;4.50;99.90;;;5.34;74.41;97462.47;5223089;28;20225;-53
2022/03/29 05:12:11;;;;;;;16.70;14.50;;;4.60;99.90;;;5.40;74.57;97459.47;5222996;28;20201;-52
2022/03/29 05:14:45;;;;;;;14.37;12.97;;;4.60;99.90;;;5.46;74.11;97456.50;5225058;28;20587;-54
2022/03/29 05:17:18;;;;;;;13.83;12.53;;;4.60;99.90;;;5.34;74.39;97457.41;5221254;28;20313;-55
2022/03/29 05:19:52;;;;;;;15.67;13.33;;;4.50;99.90;;;5.40;75.38;97455.28;5219076;28;20235;-50
2022/03/29 05:22:25;;;;;;;15.80;13.77;;;4.60;99.90;;;5.46;74.85;97456.50;5221179;28;20236;-54
2022/03/29 05:24:58;;;;;;;15.03;13.50;;;4.70;99.90;;;5.56;75.20;97464.84;5222102;28;20199;-50
2022/03/29 05:27:31;;;;;;;15.33;13.83;;;4.80;99.90;;;5.59;74.03;97471.81;5217309;28;20204;-52
2022/03/29 05:30:08;;;;;;;17.80;13.83;;;4.90;99.90;;;5.61;74.18;97461.00;5218207;28;20702;-52
2022/03/29 05:32:41;;;;;;;15.73;14.13;;;4.90;99.90;;;5.76;74.01;97471.31;5217593;28;20242;-51
2022/03/29 05:35:14;;;;;;;15.27;13.67;;;5.00;99.90;;;5.79;73.70;97469.00;5218702;28;20618;-50
2022/03/29 05:37:48;;;;;;;14.30;12.80;;;5.00;99.90;;;5.82;73.12;97475.94;5221682;28;20250;-51
2022/03/29 05:40:21;;;;;;;15.77;14.07;;;4.90;99.90;;;5.82;72.56;97466.66;5220776;28;20222;-51
2022/03/29 05:42:54;;;;;;;16.40;14.17;;;4.90;99.90;;;5.85;72.53;97471.94;5219800;28;20228;-52
2022/03/29 05:45:30;;;;;;;16.53;14.73;;;4.90;99.90;;;5.78;74.12;97472.31;5223307;28;20201;-52
2022/03/29 05:50:54;;;;;;;16.20;14.57;;;5.00;99.90;;;5.84;74.01;97460.03;5222871;28;20217;-51
2022/03/29 05:53:27;;;;;;;15.97;14.43;;;5.10;99.90;;;5.94;73.08;97465.78;5225955;28;20646;-53
2022/03/29 05:56:00;;;;;;;15.90;14.20;;;5.10;99.90;;;6.03;72.50;97467.28;5219687;28;20201;-51
2022/03/29 05:58:34;;;;;;;16.10;14.30;;;5.20;99.90;;;6.17;71.84;97455.53;5215438;28;20592;-54
2022/03/29 06:01:08;;;;;;;17.57;15.60;;;5.30;99.90;;;6.31;72.13;97467.47;5224190;28;20306;-54
2022/03/29 06:03:42;;;;;;;17.00;15.20;;;5.50;99.90;;;6.42;72.32;97468.19;5217978;28;20214;-54
2022/03/29 06:06:15;;;;;;;16.33;14.63;;;5.60;99.90;;;6.52;71.92;97465.50;5216350;28;20308;-51
2022/03/29 06:08:48;;;;;;;19.80;15.27;;;5.70;99.90;;;6.35;71.88;97455.00;5222134;28;20660;-54
2022/03/29 06:11:22;;;;;;;17.30;14.50;;;5.60;99.90;;;6.56;70.62;97460.63;5212239;28;20232;-51
2022/03/29 06:13:55;;;;;;;16.87;15.07;;;5.70;99.90;;;6.63;70.46;97457.69;5222414;28;20225;-56
2022/03/29 06:16:29;;;;;;;17.43;14.67;;;5.80;99.90;;;6.86;70.39;97456.66;5224486;28;20298;-51
2022/03/29 06:19:03;;;;;;;22.10;18.20;;;6.00;99.90;;;6.99;70.16;97470.25;5222547;28;20731;-54
2022/03/29 06:21:36;;;;;;;18.40;16.47;;;6.20;99.90;;;7.15;69.57;97466.13;5224509;28;20207;-55
2022/03/29 06:24:11;;;;;;;24.57;18.17;;;6.30;99.90;;;7.31;69.68;97460.38;5219697;28;20216;-54
2022/03/29 06:26:44;;;;;;;28.67;24.30;;;6.40;99.90;;;7.43;68.63;97458.59;5221545;28;20197;-53
2022/03/29 06:29:17;;;;;;;15.03;13.63;;;6.50;99.90;;;7.54;68.15;97457.59;5222076;28;20744;-53
2022/03/29 06:31:52;;;;;;;15.07;13.53;;;6.60;99.90;;;7.59;68.76;97456.22;5222060;28;20712;-53
2022/03/29 06:34:26;;;;;;;17.27;14.67;;;6.80;99.90;;;7.73;66.94;97452.00;5221734;28;20633;-51
2022/03/29 06:36:59;;;;;;;17.33;15.47;;;6.80;99.90;;;7.81;66.38;97457.53;5221428;28;20313;-51
2022/03/29 06:39:32;;;;;;;16.70;15.00;;;6.80;99.90;;;7.75;66.25;97444.44;5224763;28;20304;-55
2022/03/29 06:42:05;;;;;;;16.93;15.17;;;6.70;99.90;;;7.91;67.14;97459.84;5224002;28;20288;-53
2022/03/29 06:44:39;;;;;;;15.23;13.73;;;6.80;99.90;;;7.89;66.89;97456.31;5224001;28;20208;-55
2022/03/29 06:47:14;;;;;;;15.63;14.03;;;6.90;99.90;;;8.10;66.80;97465.28;5210568;28;20217;-53
2022/03/29 06:49:48;;;;;;;15.60;14.10;;;7.00;99.90;;;8.30;66.25;97456.28;5206726;28;20223;-51
2022/03/29 06:52:26;;;;;;;16.23;13.90;;;7.20;99.90;;;8.43;65.88;97452.81;5215204;28;20869;-51
2022/03/29 06:54:59;;;;;;;16.13;14.47;;;7.40;99.90;;;8.63;65.19;97453.09;5214640;28;20226;-53
2022/03/29 06:57:32;;;;;;;15.80;14.20;;;7.50;99.90;;;8.79;64.90;97461.72;5224562;28;20660;-51
2022/03/29 07:00:09;;;;;;;16.17;13.87;;;7.70;99.90;;;9.10;64.14;97457.44;5213949;28;20229;-55
2022/03/29 07:02:44;;;;;;;19.17;14.57;;;7.90;99.90;;;9.29;62.97;97452.59;5218395;28;20323;-52
2022/03/29 07:05:19;;;;;;;17.70;14.60;;;8.00;99.90;;;9.45;62.63;97450.09;5216969;28;20840;-51
2022/03/29 07:07:52;;;;;;;18.03;15.87;;;8.10;99.90;;;9.67;62.30;97448.69;5222688;28;20192;-56
2022/03/29 07:13:16;;;;;;;16.50;14.80;;;8.50;98.90;;;9.90;60.76;97455.00;5222700;28;20237;-54
2022/03/29 07:15:50;;;;;;;17.93;16.13;;;8.50;98.70;;;9.92;60.34;97449.19;5222471;28;20193;-55
2022/03/29 07:18:24;;;;;;;18.20;16.30;;;8.50;98.80;;;9.95;60.46;97458.69;5219372;28;20992;-53
2022/03/29 07:20:58;;;;;;;21.03;16.03;;;8.50;98.70;;;9.92;60.27;97449.19;5220898;28;20674;-53
2022/03/29 07:23:31;;;;;;;17.77;14.80;;;8.60;98.70;;;9.99;60.50;97459.75;5222027;28;20197;-56
2022/03/29 07:26:05;;;;;;;17.37;15.43;;;8.60;98.80;;;9.96;60.44;97457.91;5224618;28;20288;-51
2022/03/29 07:28:38;;;;;;;17.73;15.97;;;8.70;98.60;;;10.01;60.33;97448.81;5222794;28;20205;-54
2022/03/29 07:31:11;;;;;;;17.83;15.97;;;8.70;98.60;;;9.99;61.18;97449.53;5218802;28;20221;-54
2022/03/29 07:33:46;;;;;;;17.03;15.23;;;8.80;98.60;;;9.99;61.24;97454.66;5216539;28;20194;-52
2022/03/29 07:36:20;;;;;;;18.23;15.50;;;8.80;98.90;;;10.20;61.07;97450.66;5215266;28;20238;-52
2022/03/29 07:38:53;;;;;;;18.87;15.50;;;9.10;98.90;;;10.29;61.53;97448.59;5220346;28;20233;-53
2022/03/29 07:41:26;;;;;;;16.83;14.97;;;9.30;98.80;;;10.49;61.56;97448.72;5220484;28;20586;-54
2022/03/29 07:43:59;;;;;;;18.23;15.87;;;9.50;98.30;;;10.66;60.43;97444.47;5221526;28;20197;-55
2022/03/29 07:46:32;;;;;;;20.47;15.60;;;9.70;98.30;;;10.93;60.34;97444.94;5220494;28;20301;-51
2022/03/29 07:49:07;;;;;;;17.77;15.30;;;9.80;97.70;;;11.18;58.81;97447.88;5218128;28;20237;-55
2022/03/29 07:52:00;;;;;;;17.93;15.47;;;9.90;97.20;;;11.15;58.47;97442.63;5221543;28;20200;-54
2022/03/29 07:54:33;;;;;;;16.93;15.17;;;10.10;97.10;;;11.28;58.72;97433.88;5222871;28;20748;-53
2022/03/29 07:57:08;;;;;;;17.67;15.73;;;10.20;97.10;;;11.41;58.02;97432.75;5223163;28;20298;-53
2022/03/29 08:00:31;;;;;;;17.30;15.47;;;10.40;96.80;;;11.67;58.22;97432.25;5214565;28;20586;-54
2022/03/29 08:02:58;;;;;;;17.70;15.90;;;10.60;96.50;;;11.98;57.07;97428.56;5207761;28;20325;-56
2022/03/29 08:05:34;;;;;;;17.73;15.93;;;10.90;95.90;;;12.10;56.12;97433.34;5227698;28;20193;-53
2022/03/29 08:08:10;;;;;;;18.85;15.43;;;11.00;95.10;;;12.30;54.65;97426.53;5227057;28;20227;-51
2022/03/29 08:10:44;;;;;;;17.98;16.17;;;11.20;94.50;;;12.41;54.03;97430.44;5227134;28;20247;-59
2022/03/29 08:13:18;;;;;;;17.23;15.27;;;11.30;94.20;;;12.54;54.18;97427.59;5226612;28;20303;-54
2022/03/29 08:15:55;;;;;;;20.98;16.73;;;11.40;93.90;;;12.62;53.88;97431.34;5226285;28;20634;-53
2022/03/29 08:18:28;;;;;;;17.73;15.95;;;11.60;93.50;;;12.77;53.53;97425.13;5214644;28;20212;-55
2022/03/29 08:21:47;;;;;;;17.48;15.30;;;11.70;93.00;;;12.87;52.73;97424.66;5217539;28;20309;-55
2022/03/29 08:23:56;;;;;;;20.00;15.45;;;11.80;92.80;;;13.07;52.27;97428.03;5224889;28;20200;-52
2022/03/29 08:26:30;;;;;;;16.08;14.57;;;12.10;92.20;;;13.18;50.80;97419.06;5225467;28;20297;-52
2022/03/29 08:29:04;;;;;;;16.42;14.73;;;12.30;91.60;;;13.47;49.49;97424.50;5227182;28;20253;-53
2022/03/29 08:31:37;;;;;;;18.10;15.70;;;12.50;91.00;;;13.70;48.65;97426.25;5217397;28;20202;-50
2022/03/29 08:34:10;;;;;;;17.80;15.50;;;12.70;89.20;;;13.88;48.10;97418.38;5223853;28;20292;-52
2022/03/29 08:36:46;;;;;;;17.73;15.70;;;12.90;88.20;;;14.03;47.54;97419.75;5226256;28;20288;-54
2022/03/29 08:39:19;;;;;;;16.38;14.77;;;13.00;87.70;;;14.09;46.46;97414.84;5225926;28;20307;-53
2022/03/29 08:41:59;;;;;;;15.85;14.25;;;13.10;86.80;;;14.23;45.57;97417.91;5225613;28;20289;-54
2022/03/29 08:44:34;;;;;;;16.92;15.13;;;13.30;86.10;;;14.36;46.04;97410.66;5224249;28;20312;-54
2022/03/29 08:47:08;;;;;;;17.23;14.80;;;13.40;85.10;;;14.53;45.73;97418.13;5220757;28;20225;-55
2022/03/29 08:49:41;;;;;;;16.77;14.60;;;13.50;84.90;;;14.75;45.14;97410.31;5224256;28;20219;-53
2022/03/29 08:52:17;;;;;;;16.30;14.70;;;13.80;84.40;;;14.90;44.36;97409.06;5220799;28;20200;-52
2022/03/29 08:54:50;;;;;;;16.02;14.38;;;13.90;83.90;;;14.99;43.75;97411.94;5219049;28;20684;-52
2022/03/29 08:57:23;;;;;;;18.52;15.10;;;13.90;83.00;;;15.10;44.46;97402.84;5220511;28;20205;-52
2022/03/29 08:59:57;;;;;;;16.40;13.82;;;14.00;83.00;;;15.33;43.43;97407.03;5213073;28;20230;-53
2022/03/29 09:02:34;;;;;;;17.70;14.52;;;14.30;82.50;;;15.45;43.31;97403.97;5217803;28;20723;-51
2022/03/29 09:05:12;;;;;;;15.82;14.02;;;14.30;81.50;;;15.63;42.90;97401.06;5221760;28;20599;-51
2022/03/29 09:07:56;;;;;;;16.05;14.35;;;14.50;81.50;;;15.75;41.68;97398.88;5223108;28;20197;-55
2022/03/29 09:10:41;;;;;;;15.98;14.27;;;14.80;79.30;;;15.91;41.39;97397.63;5218858;28;20227;-52
2022/03/29 09:13:17;;;;;;;15.32;13.73;;;14.90;78.80;;;16.11;41.21;97395.63;5209209;28;20229;-52
2022/03/29 09:15:52;;;;;;;16.75;14.48;;;14.90;78.90;;;16.27;41.11;97396.03;5221746;28;20201;-54
2022/03/29 09:18:27;;;;;;;16.50;14.23;;;15.10;78.40;;;16.34;40.06;97397.91;5226061;28;20287;-50
2022/03/29 09:21:09;;;;;;;16.75;14.63;;;15.20;77.60;;;16.50;39.74;97396.63;5225223;28;20332;-52
2022/03/29 09:24:04;;;;;;;15.63;13.82;;;15.40;76.60;;;16.72;40.18;97393.78;5224313;28;20203;-52
2022/03/29 09:26:42;;;;;;;15.45;13.80;;;15.50;77.60;;;16.82;39.42;97392.31;5220633;28;20200;-51
2022/03/29 09:29:18;;;;;;;15.07;13.57;;;15.60;76.20;;;16.87;39.78;97393.31;5219900;28;20217;-50
2022/03/29 09:32:04;;;;;;;15.90;14.30;;;15.70;76.50;;;17.05;39.50;97396.38;5225265;28;20289;-53
2022/03/29 09:34:38;;;;;;;16.75;14.13;;;15.80;75.80;;;17.15;39.25;97388.84;5225897;28;20737;-55
2022/03/29 09:37:11;;;;;;;16.30;14.60;;;15.90;76.80;;;17.28;38.61;97389.16;5226670;28;20229;-57
2022/03/29 09:39:48;;;;;;;18.50;14.75;;;16.00;75.60;;;17.42;38.36;97379.13;5218890;28;20235;-58
2022/03/29 09:42:21;;;;;;;15.93;14.23;;;16.00;75.40;;;17.48;38.08;97381.88;5221337;28;20220;-58
2022/03/29 09:44:56;;;;;;;17.92;14.63;;;16.20;74.90;;;17.60;37.91;97385.53;5224705;28;20673;-57
2022/03/29 09:47:29;;;;;;;15.38;13.65;;;16.40;74.60;;;17.66;38.79;97385.69;5224892;28;20201;-57
2022/03/29 09:50:06;;;;;;;15.52;13.93;;;16.30;75.20;;;17.75;38.57;97375.53;5223422;28;20219;-56
2022/03/29 09:52:41;;;;;;;16.33;14.52;;;16.40;74.80;;;17.91;38.42;97372.47;5222536;28;20201;-58
2022/03/29 09:55:17;;;;;;;15.75;14.05;;;16.70;75.30;;;18.14;37.50;97374.59;5218193;28;20232;-56
2022/03/29 09:57:55;;;;;;;17.42;14.00;;;17.00;73.50;;;18.26;37.60;97369.69;5223838;28;20297;-56
2022/03/29 10:00:36;;;;;;;16.52;14.73;;;17.10;74.00;;;18.33;37.68;97375.84;5222151;28;20748;-57
2022/03/29 10:03:11;;;;;;;15.55;13.95;;;17.00;73.90;;;18.27;37.52;97371.41;5225601;28;20576;-58
2022/03/29 10:05:50;;;;;;;16.67;14.23;;;17.00;74.50;;;18.20;37.13;97364.41;5217837;28;20588;-59
2022/03/29 10:11:22;;;;;;;15.43;13.80;;;16.80;74.40;;;18.31;37.79;97352.50;5222367;28;20198;-59
2022/03/29 10:13:55;;;;;;;15.35;13.75;;;16.90;73.70;;;18.40;36.57;97351.84;5220652;28;20204;-59
2022/03/29 10:16:29;;;;;;;16.90;13.90;;;17.10;72.90;;;18.56;36.01;97348.66;5224511;28;20292;-59
2022/03/29 10:19:04;;;;;;;15.27;13.65;;;17.20;71.40;;;18.59;36.07;97335.75;5220831;28;20630;-58
2022/03/29 10:21:37;;;;;;;15.70;14.05;;;17.40;70.90;;;18.68;36.07;97341.13;5220256;28;20258;-56
2022/03/29 10:24:14;;;;;;;16.15;14.30;;;17.50;71.10;;;18.76;35.62;97336.06;5214694;28;20202;-58
2022/03/29 10:26:51;;;;;;;16.10;14.40;;;17.50;70.50;;;18.89;33.62;97325.09;5216999;28;20207;-59
2022/03/29 10:29:24;;;;;;;16.20;13.82;;;17.80;66.00;;;18.96;34.14;97322.59;5213664;28;20244;-59
2022/03/29 10:32:00;;;;;;;15.45;13.77;;;17.70;67.50;;;18.95;34.85;97310.50;5221826;28;20307;-59
2022/03/29 10:34:37;;;;;;;16.75;13.27;;;17.80;68.40;;;18.99;34.48;97317.44;5225558;28;20630;-59
2022/03/29 10:37:14;;;;;;;15.27;13.75;;;18.00;67.80;;;18.92;33.70;97315.63;5216329;28;20201;-59
2022/03/29 10:39:54;;;;;;;15.50;13.45;;;17.90;65.50;;;19.08;32.67;97302.03;5223406;28;20312;-59
2022/03/29 10:42:37;;;;;;;16.42;13.68;;;18.00;64.80;;;19.08;33.21;97300.31;5223371;28;20288;-59
2022/03/29 10:45:21;;;;;;;14.65;13.10;;;18.00;64.80;;;19.18;33.39;97303.06;5223442;28;20193;-57
2022/03/29 10:48:09;;;;;;;15.90;13.88;;;18.10;66.40;;;19.22;32.12;97295.31;5223963;28;20193;-59
2022/03/29 10:50:59;;;;;;;16.13;14.43;;;18.00;63.80;;;19.24;32.46;97288.44;5219025;28;20217;-58
2022/03/29 10:53:36;;;;;;;15.07;13.48;;;18.10;64.70;;;19.42;32.65;97293.00;5218994;28;20193;-59
2022/03/29 10:56:23;;;;;;;17.00;14.00;;;18.40;64.70;;;19.53;32.19;97287.97;5222749;28;20197;-59
2022/03/29 10:59:14;;;;;;;16.95;15.15;;;18.60;63.10;;;19.25;32.15;97285.00;5222006;28;20201;-59